Time;durP1;ratioP1;P1;durP2;ratioP2;P2;SDS_P1;SDS_P2;PMS_P1;PMS_P2;Temp;Humidity;BMP_temperature;BMP_pressure;BME280_temperature;BME280_humidity;BME280_pressure;Samples;Min_cycle;Max_cycle;Signal;HPM_P1;HPM_P2
2021/12/13 00:00:42;;;;;;;42.33;22.48;;;;;;;;;;5093163;28;20032;-62
2021/12/13 00:03:12;;;;;;;40.83;22.30;;;;;;;;;;5091899;28;20070;-63
2021/12/13 00:05:42;;;;;;;39.33;21.98;;;;;;;;;;5093069;28;20022;-63
2021/12/13 00:08:11;;;;;;;39.53;21.90;;;;;;;;;;5093145;28;20037;-63
2021/12/13 00:10:52;;;;;;;39.03;21.35;;;;;;;;;;5093126;28;20059;-62
2021/12/13 00:13:24;;;;;;;37.35;21.52;;;;;;;;;;5091969;28;20024;-62
2021/12/13 00:15:53;;;;;;;37.80;20.15;;;;;;;;;;5092443;28;20107;-63
2021/12/13 00:18:21;;;;;;;40.38;20.70;;;;;;;;;;5092915;28;20035;-62
2021/12/13 00:20:51;;;;;;;33.55;19.70;;;;;;;;;;5091727;28;20035;-62
2021/12/13 00:23:25;;;;;;;34.42;20.02;;;;;;;;;;5095666;28;20031;-62
2021/12/13 00:25:53;;;;;;;36.10;20.50;;;;;;;;;;5097103;28;20054;-62
2021/12/13 00:28:22;;;;;;;33.28;19.20;;;;;;;;;;5096983;28;20108;-62
2021/12/13 00:31:07;;;;;;;37.40;19.20;;;;;;;;;;5096991;28;20051;-62
2021/12/13 00:33:51;;;;;;;34.25;19.35;;;;;;;;;;5097229;28;20036;-62
2021/12/13 00:36:17;;;;;;;33.45;20.40;;;;;;;;;;5096923;28;20028;-62
2021/12/13 00:38:54;;;;;;;33.55;19.15;;;;;;;;;;5096763;28;20528;-62
2021/12/13 00:41:25;;;;;;;32.70;17.80;;;;;;;;;;5096821;28;20028;-62
2021/12/13 00:44:01;;;;;;;32.67;19.55;;;;;;;;;;5096768;28;20056;-62
2021/12/13 00:46:29;;;;;;;35.55;19.73;;;;;;;;;;5096709;28;20499;-63
2021/12/13 00:48:57;;;;;;;35.85;20.35;;;;;;;;;;5095297;28;20035;-62
2021/12/13 00:51:26;;;;;;;35.83;20.23;;;;;;;;;;5096172;28;20445;-62
2021/12/13 00:53:54;;;;;;;35.35;19.70;;;;;;;;;;5096512;28;20029;-62
2021/12/13 00:56:38;;;;;;;38.28;21.17;;;;;;;;;;5096497;28;20081;-62
2021/12/13 00:59:05;;;;;;;38.53;22.35;;;;;;;;;;5096342;28;20028;-62
2021/12/13 01:01:31;;;;;;;32.97;19.70;;;;;;;;;;5096393;28;20023;-62
2021/12/13 01:03:58;;;;;;;40.50;21.75;;;;;;;;;;5095021;28;20110;-62
2021/12/13 01:06:42;;;;;;;37.65;21.45;;;;;;;;;;5096285;28;20062;-63
2021/12/13 01:09:27;;;;;;;39.25;20.30;;;;;;;;;;5096280;28;20067;-62
2021/12/13 01:11:59;;;;;;;47.55;22.27;;;;;;;;;;5094888;28;20111;-63
2021/12/13 01:14:30;;;;;;;;;;;;;;;;;;5095282;28;20429;-63
2021/12/13 01:17:10;;;;;;;38.33;20.70;;;;;;;;;;5096148;28;19904;-62
2021/12/13 01:25:24;;;;;;;37.10;21.10;;;;;;;;;;5095990;28;20034;-62
2021/12/13 01:28:05;;;;;;;37.78;20.30;;;;;;;;;;5095944;28;20017;-62
2021/12/13 01:30:50;;;;;;;39.03;21.02;;;;;;;;;;5096052;28;20028;-62
2021/12/13 01:33:18;;;;;;;35.13;19.75;;;;;;;;;;5094907;28;20023;-62
2021/12/13 01:35:47;;;;;;;36.58;21.92;;;;;;;;;;5094407;28;20016;-62
2021/12/13 01:38:35;;;;;;;36.75;20.15;;;;;;;;;;5094557;28;20115;-62
2021/12/13 01:41:08;;;;;;;36.47;19.83;;;;;;;;;;5095700;28;20099;-62
2021/12/13 01:43:34;;;;;;;36.85;21.65;;;;;;;;;;5095647;28;20022;-62
2021/12/13 01:46:01;;;;;;;33.15;20.30;;;;;;;;;;5095487;28;20107;-61
2021/12/13 01:48:30;;;;;;;36.25;20.45;;;;;;;;;;5095481;28;20028;-62
2021/12/13 01:51:05;;;;;;;40.72;22.73;;;;;;;;;;5095051;28;20055;-62
2021/12/13 01:53:39;;;;;;;36.78;20.63;;;;;;;;;;5095397;28;20046;-62
2021/12/13 01:56:22;;;;;;;40.75;20.70;;;;;;;;;;5095348;28;20020;-62
2021/12/13 01:58:49;;;;;;;35.03;19.90;;;;;;;;;;5095265;28;20040;-62
2021/12/13 02:01:26;;;;;;;41.80;23.23;;;;;;;;;;5095220;28;20110;-62
2021/12/13 02:03:58;;;;;;;42.30;21.65;;;;;;;;;;5095265;28;20028;-62
2021/12/13 02:06:27;;;;;;;38.60;20.63;;;;;;;;;;5095124;28;20048;-62
2021/12/13 02:08:54;;;;;;;37.88;20.45;;;;;;;;;;5095101;28;20036;-62
2021/12/13 02:11:21;;;;;;;38.03;19.10;;;;;;;;;;5094991;28;20024;-63
2021/12/13 02:14:05;;;;;;;40.25;21.30;;;;;;;;;;5094975;28;20020;-62
2021/12/13 02:16:57;;;;;;;44.30;22.30;;;;;;;;;;5094972;28;20106;-63
2021/12/13 02:19:25;;;;;;;44.38;21.92;;;;;;;;;;5094885;28;20030;-62
2021/12/13 02:21:57;;;;;;;39.75;21.40;;;;;;;;;;5094844;28;20076;-62
2021/12/13 02:24:24;;;;;;;39.78;21.30;;;;;;;;;;5094815;28;20023;-62
2021/12/13 02:26:51;;;;;;;38.63;20.42;;;;;;;;;;5093143;28;20036;-62
2021/12/13 02:29:22;;;;;;;40.35;21.95;;;;;;;;;;5094680;28;20024;-63
2021/12/13 02:31:48;;;;;;;38.40;21.92;;;;;;;;;;5094471;28;20044;-62
2021/12/13 02:34:16;;;;;;;40.95;20.85;;;;;;;;;;5094291;28;20048;-63
2021/12/13 02:36:44;;;;;;;36.40;19.80;;;;;;;;;;5094615;28;20035;-62
2021/12/13 02:39:15;;;;;;;41.83;20.70;;;;;;;;;;5094553;28;20028;-62
2021/12/13 02:41:42;;;;;;;37.20;18.90;;;;;;;;;;5094158;28;20043;-63
2021/12/13 02:44:20;;;;;;;35.90;18.90;;;;;;;;;;5093063;28;20024;-63
2021/12/13 02:46:47;;;;;;;35.03;19.85;;;;;;;;;;5092969;28;20361;-62
2021/12/13 02:49:15;;;;;;;34.70;19.42;;;;;;;;;;5094362;28;20103;-62
2021/12/13 02:51:44;;;;;;;33.72;18.92;;;;;;;;;;5094257;28;20055;-63
2021/12/13 02:54:16;;;;;;;35.55;19.88;;;;;;;;;;5092912;28;20055;-63
2021/12/13 02:56:42;;;;;;;;;;;;;;;;;;5094886;28;20026;-63
2021/12/13 02:59:09;;;;;;;34.58;18.92;;;;;;;;;;5094046;28;20010;-63
2021/12/13 03:01:38;;;;;;;41.53;20.90;;;;;;;;;;5094027;28;20027;-62
2021/12/13 03:04:07;;;;;;;41.30;22.15;;;;;;;;;;5094096;28;20102;-62
2021/12/13 03:06:39;;;;;;;34.63;21.08;;;;;;;;;;5093998;28;20115;-62
2021/12/13 03:09:10;;;;;;;35.60;20.85;;;;;;;;;;5094258;28;20087;-62
2021/12/13 03:11:37;;;;;;;40.40;21.75;;;;;;;;;;5092562;28;20529;-62
2021/12/13 03:14:08;;;;;;;40.50;21.70;;;;;;;;;;5093892;28;20024;-62
2021/12/13 03:16:54;;;;;;;35.70;20.83;;;;;;;;;;5093928;28;20027;-62
2021/12/13 03:19:48;;;;;;;40.95;20.58;;;;;;;;;;5079448;28;20120;-62
2021/12/13 03:22:33;;;;;;;42.00;20.95;;;;;;;;;;5093730;28;20013;-62
2021/12/13 03:25:11;;;;;;;42.33;21.48;;;;;;;;;;5092318;28;20028;-62
2021/12/13 03:27:55;;;;;;;35.00;19.73;;;;;;;;;;5093644;28;20024;-62
2021/12/13 03:30:24;;;;;;;36.17;20.55;;;;;;;;;;5093320;28;20103;-62
2021/12/13 03:32:56;;;;;;;38.10;19.77;;;;;;;;;;5093566;28;20032;-62
2021/12/13 03:35:22;;;;;;;35.15;19.50;;;;;;;;;;5093513;28;20031;-62
2021/12/13 03:37:54;;;;;;;37.38;19.50;;;;;;;;;;5093472;28;20022;-62
2021/12/13 03:40:21;;;;;;;33.92;19.00;;;;;;;;;;5093184;28;20111;-62
2021/12/13 03:42:50;;;;;;;35.30;20.10;;;;;;;;;;5093491;28;20078;-62
2021/12/13 03:45:23;;;;;;;39.72;21.08;;;;;;;;;;5093379;28;20081;-62
2021/12/13 03:47:51;;;;;;;31.85;17.88;;;;;;;;;;5093306;28;20027;-62
2021/12/13 03:50:23;;;;;;;34.53;18.33;;;;;;;;;;5092913;28;20120;-62
2021/12/13 03:52:51;;;;;;;35.92;20.08;;;;;;;;;;5091946;28;20077;-63
2021/12/13 03:55:19;;;;;;;38.40;20.17;;;;;;;;;;5093266;28;20060;-62
2021/12/13 03:57:57;;;;;;;35.22;19.73;;;;;;;;;;5092745;28;20023;-63
2021/12/13 04:00:27;;;;;;;37.10;19.80;;;;;;;;;;5091911;28;20124;-63
2021/12/13 04:02:55;;;;;;;37.78;20.33;;;;;;;;;;5093402;28;20045;-63
2021/12/13 04:05:23;;;;;;;37.72;19.80;;;;;;;;;;5093140;28;20055;-62
2021/12/13 04:07:54;;;;;;;44.63;21.05;;;;;;;;;;5093109;28;20030;-62
2021/12/13 04:10:25;;;;;;;43.30;21.33;;;;;;;;;;5093164;28;20070;-62
2021/12/13 04:12:53;;;;;;;47.22;22.02;;;;;;;;;;5092842;28;20443;-62
2021/12/13 04:15:26;;;;;;;39.70;20.73;;;;;;;;;;5093055;28;20024;-62
2021/12/13 04:18:26;;;;;;;40.33;20.50;;;;;;;;;;5093137;28;20364;-62
2021/12/13 04:20:56;;;;;;;37.72;20.67;;;;;;;;;;5093064;28;20024;-63
2021/12/13 04:23:23;;;;;;;38.97;20.90;;;;;;;;;;5093043;28;20033;-62
2021/12/13 04:25:50;;;;;;;38.28;19.98;;;;;;;;;;5093221;28;20106;-62
2021/12/13 04:28:21;;;;;;;43.10;20.88;;;;;;;;;;5091884;28;20392;-62
2021/12/13 04:31:07;;;;;;;38.65;19.92;;;;;;;;;;5092703;28;20362;-63
2021/12/13 04:33:39;;;;;;;34.55;19.85;;;;;;;;;;5092889;28;20024;-62
2021/12/13 04:36:10;;;;;;;38.60;20.48;;;;;;;;;;5092955;28;20024;-62
2021/12/13 04:38:56;;;;;;;43.33;20.60;;;;;;;;;;5092834;28;20043;-63
2021/12/13 04:41:28;;;;;;;39.42;20.77;;;;;;;;;;5092711;28;20088;-63
2021/12/13 04:43:54;;;;;;;;;;;;;;;;;;5093478;28;20115;-63
2021/12/13 04:46:21;;;;;;;39.20;21.13;;;;;;;;;;5092802;28;19932;-63
2021/12/13 04:48:50;;;;;;;38.75;21.48;;;;;;;;;;5092790;28;20024;-63
2021/12/13 04:51:17;;;;;;;38.75;21.05;;;;;;;;;;5092826;28;20093;-63
2021/12/13 04:53:45;;;;;;;36.92;20.55;;;;;;;;;;5091467;28;20043;-63
2021/12/13 04:56:14;;;;;;;37.40;20.40;;;;;;;;;;5092710;28;20024;-63
2021/12/13 04:58:42;;;;;;;43.80;23.15;;;;;;;;;;5092297;28;20513;-63
2021/12/13 05:01:10;;;;;;;44.25;22.27;;;;;;;;;;5092582;28;20102;-63
2021/12/13 05:03:39;;;;;;;45.25;22.25;;;;;;;;;;5092650;28;20024;-63
2021/12/13 05:06:07;;;;;;;45.00;23.77;;;;;;;;;;5092577;28;20028;-63
2021/12/13 05:08:33;;;;;;;54.22;25.65;;;;;;;;;;5093495;28;20028;-63
2021/12/13 05:11:02;;;;;;;50.00;24.65;;;;;;;;;;5094924;28;20028;-62
2021/12/13 05:13:30;;;;;;;49.38;24.95;;;;;;;;;;5096214;28;20032;-62
2021/12/13 05:15:59;;;;;;;55.05;26.67;;;;;;;;;;5096111;28;20107;-62
2021/12/13 05:18:27;;;;;;;55.13;26.10;;;;;;;;;;5095988;28;20028;-62
2021/12/13 05:21:05;;;;;;;47.05;23.95;;;;;;;;;;5094735;28;20036;-62
2021/12/13 05:23:31;;;;;;;52.33;25.80;;;;;;;;;;5094882;28;20408;-62
2021/12/13 05:26:04;;;;;;;51.28;26.00;;;;;;;;;;5094615;28;20030;-62
2021/12/13 05:28:38;;;;;;;46.15;24.92;;;;;;;;;;5095913;28;20073;-62
2021/12/13 05:31:06;;;;;;;46.33;23.83;;;;;;;;;;5095963;28;20064;-62
2021/12/13 05:33:34;;;;;;;45.17;24.33;;;;;;;;;;5094149;28;20056;-62
2021/12/13 05:36:03;;;;;;;51.95;25.02;;;;;;;;;;5095972;28;20024;-62
2021/12/13 05:38:32;;;;;;;51.83;25.75;;;;;;;;;;5095292;28;20982;-62
2021/12/13 05:41:00;;;;;;;47.85;23.02;;;;;;;;;;5095612;28;20031;-63
2021/12/13 05:43:39;;;;;;;51.05;24.23;;;;;;;;;;5095599;28;20024;-63
2021/12/13 05:46:09;;;;;;;46.25;24.92;;;;;;;;;;5095599;28;20043;-61
2021/12/13 05:48:35;;;;;;;56.85;29.40;;;;;;;;;;5095420;28;20043;-62
2021/12/13 05:51:04;;;;;;;52.22;26.50;;;;;;;;;;5095452;28;20080;-62
2021/12/13 05:53:32;;;;;;;50.85;25.42;;;;;;;;;;5090759;28;20028;-62
2021/12/13 05:55:58;;;;;;;47.38;24.90;;;;;;;;;;5094861;28;20055;-62
2021/12/13 05:58:29;;;;;;;46.25;24.92;;;;;;;;;;5093764;28;20388;-62
2021/12/13 06:00:57;;;;;;;46.55;24.02;;;;;;;;;;5095237;28;20106;-62
2021/12/13 06:03:31;;;;;;;52.35;23.90;;;;;;;;;;5094934;28;20075;-62
2021/12/13 06:06:04;;;;;;;50.60;25.65;;;;;;;;;;5095079;28;20043;-61
2021/12/13 06:08:32;;;;;;;53.97;26.52;;;;;;;;;;5094723;28;20043;-62
2021/12/13 06:11:00;;;;;;;59.35;27.70;;;;;;;;;;5094661;28;20107;-62
2021/12/13 06:13:38;;;;;;;62.85;36.10;;;;;;;;;;5093532;28;20476;-62
2021/12/13 06:16:05;;;;;;;59.35;29.80;;;;;;;;;;5093047;28;20457;-62
2021/12/13 06:18:33;;;;;;;57.30;29.40;;;;;;;;;;5094647;28;20115;-62
2021/12/13 06:21:18;;;;;;;60.33;28.55;;;;;;;;;;5093513;28;20024;-60
2021/12/13 06:23:47;;;;;;;54.17;27.23;;;;;;;;;;5094290;28;20052;-60
2021/12/13 06:26:14;;;;;;;54.08;27.10;;;;;;;;;;5094528;28;20024;-62
2021/12/13 06:28:41;;;;;;;66.95;33.45;;;;;;;;;;5093225;28;20365;-60
2021/12/13 06:31:34;;;;;;;57.65;27.52;;;;;;;;;;5093088;28;20110;-63
2021/12/13 06:34:03;;;;;;;48.42;25.92;;;;;;;;;;5088246;28;20036;-62
2021/12/13 06:36:31;;;;;;;53.30;28.15;;;;;;;;;;5094365;28;20028;-62
2021/12/13 06:38:59;;;;;;;60.67;29.73;;;;;;;;;;5094229;28;20123;-61
2021/12/13 06:41:25;;;;;;;60.35;30.33;;;;;;;;;;5092857;28;20127;-61
2021/12/13 06:43:51;;;;;;;72.30;32.70;;;;;;;;;;5094341;28;20060;-60
2021/12/13 06:46:21;;;;;;;62.97;32.45;;;;;;;;;;5094056;28;20362;-60
2021/12/13 06:48:47;;;;;;;68.45;33.80;;;;;;;;;;5092860;28;20070;-60
2021/12/13 06:51:16;;;;;;;74.15;37.92;;;;;;;;;;5094219;28;20037;-61
2021/12/13 06:53:58;;;;;;;69.78;36.17;;;;;;;;;;5094328;28;20506;-61
2021/12/13 06:56:26;;;;;;;68.43;37.13;;;;;;;;;;5093949;28;20028;-62
2021/12/13 06:58:54;;;;;;;65.18;32.50;;;;;;;;;;5092426;28;20067;-62
2021/12/13 07:01:22;;;;;;;64.60;33.60;;;;;;;;;;5093790;28;20035;-62
2021/12/13 07:03:57;;;;;;;61.65;31.40;;;;;;;;;;5093124;28;20425;-62
2021/12/13 07:06:23;;;;;;;67.38;32.85;;;;;;;;;;5093907;28;20020;-61
2021/12/13 07:09:02;;;;;;;52.03;27.30;;;;;;;;;;5093816;28;20028;-62
2021/12/13 07:11:38;;;;;;;54.08;28.63;;;;;;;;;;5092369;28;20028;-62
2021/12/13 07:14:06;;;;;;;59.47;30.27;;;;;;;;;;5093731;28;20024;-62
2021/12/13 07:16:39;;;;;;;64.80;31.50;;;;;;;;;;5092534;28;20403;-62
2021/12/13 07:19:23;;;;;;;65.70;32.40;;;;;;;;;;5092351;28;20028;-62
2021/12/13 07:21:54;;;;;;;60.13;30.88;;;;;;;;;;5093656;28;20555;-62
2021/12/13 07:24:40;;;;;;;74.45;36.00;;;;;;;;;;5092072;28;20036;-62
2021/12/13 07:27:11;;;;;;;60.05;28.95;;;;;;;;;;5092223;28;20380;-61
2021/12/13 07:29:46;;;;;;;69.20;34.53;;;;;;;;;;5092177;28;20024;-62
2021/12/13 07:32:15;;;;;;;67.18;33.80;;;;;;;;;;5092568;28;20031;-62
2021/12/13 07:35:00;;;;;;;62.47;34.55;;;;;;;;;;5092028;28;20020;-62
2021/12/13 07:37:37;;;;;;;64.65;34.05;;;;;;;;;;5093203;28;20124;-62
2021/12/13 07:40:24;;;;;;;65.97;35.67;;;;;;;;;;5093105;28;20528;-62
2021/12/13 07:43:05;;;;;;;67.55;33.42;;;;;;;;;;5093158;28;20028;-62
2021/12/13 07:45:38;;;;;;;63.50;33.20;;;;;;;;;;5093217;28;20103;-62
2021/12/13 07:48:06;;;;;;;63.05;31.35;;;;;;;;;;5093029;28;20012;-62
2021/12/13 07:50:33;;;;;;;60.97;31.85;;;;;;;;;;5076205;28;20405;-62
2021/12/13 07:53:01;;;;;;;57.78;30.45;;;;;;;;;;5073200;28;20045;-62
2021/12/13 07:55:28;;;;;;;60.55;32.78;;;;;;;;;;5072677;28;20396;-62
2021/12/13 07:57:57;;;;;;;59.75;29.83;;;;;;;;;;5072840;28;20025;-62
2021/12/13 08:00:28;;;;;;;57.97;31.88;;;;;;;;;;5072451;28;20387;-62
2021/12/13 08:02:54;;;;;;;60.63;32.17;;;;;;;;;;5072930;28;20028;-61
2021/12/13 08:05:24;;;;;;;63.50;33.47;;;;;;;;;;5068943;28;20028;-62
2021/12/13 08:07:55;;;;;;;62.58;34.80;;;;;;;;;;5071174;28;20020;-62
2021/12/13 08:10:23;;;;;;;56.70;31.05;;;;;;;;;;5071504;28;20085;-62
2021/12/13 08:12:55;;;;;;;59.38;30.83;;;;;;;;;;5071290;28;20135;-62
2021/12/13 08:15:23;;;;;;;58.70;30.50;;;;;;;;;;5072669;28;20029;-61
2021/12/13 08:17:59;;;;;;;56.38;29.92;;;;;;;;;;5072942;28;20060;-60
2021/12/13 08:20:27;;;;;;;61.78;33.03;;;;;;;;;;5072567;28;20052;-60
2021/12/13 08:22:55;;;;;;;52.75;26.55;;;;;;;;;;5071231;28;20031;-61
2021/12/13 08:25:25;;;;;;;53.30;28.40;;;;;;;;;;5071243;28;20025;-62
2021/12/13 08:28:02;;;;;;;52.83;27.63;;;;;;;;;;5072319;28;20436;-61
2021/12/13 08:30:48;;;;;;;53.50;30.20;;;;;;;;;;5072592;28;20491;-62
2021/12/13 08:33:20;;;;;;;55.05;29.05;;;;;;;;;;5072421;28;20112;-64
2021/12/13 08:35:48;;;;;;;52.20;28.27;;;;;;;;;;5072515;28;20029;-64
2021/12/13 08:38:24;;;;;;;54.80;29.52;;;;;;;;;;5072368;28;20035;-64
2021/12/13 08:40:51;;;;;;;58.92;29.98;;;;;;;;;;5071247;28;20086;-64
2021/12/13 08:43:32;;;;;;;54.53;28.80;;;;;;;;;;5074789;28;20031;-63
2021/12/13 08:45:58;;;;;;;54.00;29.00;;;;;;;;;;5074782;28;20119;-63
2021/12/13 08:48:24;;;;;;;61.17;32.10;;;;;;;;;;5076001;28;20078;-64
2021/12/13 08:50:53;;;;;;;60.08;31.05;;;;;;;;;;5075890;28;20052;-63
2021/12/13 08:53:24;;;;;;;64.53;33.35;;;;;;;;;;5076137;28;20388;-63
2021/12/13 08:56:02;;;;;;;63.97;31.58;;;;;;;;;;5076198;28;20031;-64
2021/12/13 08:58:29;;;;;;;52.03;29.13;;;;;;;;;;5058043;28;20071;-63
2021/12/13 09:01:04;;;;;;;65.95;31.30;;;;;;;;;;5076041;28;20021;-63
2021/12/13 09:03:30;;;;;;;64.97;31.70;;;;;;;;;;5058048;28;20115;-63
2021/12/13 09:06:15;;;;;;;55.25;30.65;;;;;;;;;;5076265;28;20103;-63
2021/12/13 09:08:43;;;;;;;62.13;32.88;;;;;;;;;;5057895;28;20182;-63
2021/12/13 09:11:18;;;;;;;60.42;32.45;;;;;;;;;;5075841;28;20063;-63
2021/12/13 09:14:05;;;;;;;60.10;29.20;;;;;;;;;;5075852;28;20021;-64
2021/12/13 09:16:42;;;;;;;61.58;31.85;;;;;;;;;;5057836;28;20029;-64
2021/12/13 09:19:38;;;;;;;79.32;38.40;;;;;;;;;;5075658;28;20031;-63
2021/12/13 09:22:27;;;;;;;78.68;37.03;;;;;;;;;;4986781;28;20536;-64
2021/12/13 09:24:53;;;;;;;61.90;32.78;;;;;;;;;;5062896;28;20039;-63
2021/12/13 09:27:28;;;;;;;66.90;34.88;;;;;;;;;;5075472;28;20102;-64
2021/12/13 09:30:13;;;;;;;75.35;37.08;;;;;;;;;;5075594;28;20597;-64
2021/12/13 09:32:52;;;;;;;73.75;35.25;;;;;;;;;;5075363;28;20029;-64
2021/12/13 09:35:31;;;;;;;67.88;35.85;;;;;;;;;;5075547;28;20115;-63
2021/12/13 09:38:01;;;;;;;68.38;36.10;;;;;;;;;;5075160;28;20028;-63
2021/12/13 09:40:34;;;;;;;72.65;39.13;;;;;;;;;;5057269;28;20466;-63
2021/12/13 09:43:01;;;;;;;69.65;37.95;;;;;;;;;;5072666;28;20056;-63
2021/12/13 09:45:34;;;;;;;72.38;39.35;;;;;;;;;;5056589;28;20114;-63
2021/12/13 09:48:13;;;;;;;81.65;45.13;;;;;;;;;;5057104;28;20028;-63
2021/12/13 09:50:40;;;;;;;86.75;45.65;;;;;;;;;;5075136;28;20053;-63
2021/12/13 09:53:09;;;;;;;87.25;46.13;;;;;;;;;;5075164;28;20021;-63
2021/12/13 09:55:38;;;;;;;84.82;46.72;;;;;;;;;;5074416;28;20032;-63
2021/12/13 09:58:16;;;;;;;87.18;45.13;;;;;;;;;;5075078;28;20093;-63
2021/12/13 10:00:50;;;;;;;66.05;35.60;;;;;;;;;;5075102;28;20075;-63
2021/12/13 10:03:34;;;;;;;80.43;41.13;;;;;;;;;;5074646;28;20021;-63
2021/12/13 10:06:05;;;;;;;89.25;42.30;;;;;;;;;;5074860;28;20384;-63
2021/12/13 10:08:39;;;;;;;72.35;39.08;;;;;;;;;;5075111;28;20032;-63
2021/12/13 10:11:09;;;;;;;85.75;48.17;;;;;;;;;;5074793;28;20059;-63
2021/12/13 10:13:37;;;;;;;88.90;48.85;;;;;;;;;;5074695;28;20103;-63
2021/12/13 10:16:07;;;;;;;76.47;45.38;;;;;;;;;;5074723;28;20104;-63
2021/12/13 10:18:35;;;;;;;76.72;43.67;;;;;;;;;;5074477;28;20039;-63
2021/12/13 10:21:07;;;;;;;170.00;68.97;;;;;;;;;;5074549;28;20063;-63
2021/12/13 10:23:35;;;;;;;107.45;51.90;;;;;;;;;;5074221;28;20025;-63
2021/12/13 10:26:06;;;;;;;69.60;41.63;;;;;;;;;;5073675;28;20039;-63
2021/12/13 10:28:34;;;;;;;68.28;39.90;;;;;;;;;;5074343;28;20067;-63
2021/12/13 10:31:09;;;;;;;73.57;41.55;;;;;;;;;;5074599;28;20055;-63
2021/12/13 10:33:37;;;;;;;79.22;42.80;;;;;;;;;;5056427;28;20169;-63
2021/12/13 10:36:07;;;;;;;77.25;42.42;;;;;;;;;;5074309;28;20017;-63
2021/12/13 10:38:37;;;;;;;77.32;45.30;;;;;;;;;;5074052;28;20086;-63
2021/12/13 10:41:13;;;;;;;77.35;43.83;;;;;;;;;;5074075;28;20032;-63
2021/12/13 10:43:41;;;;;;;97.05;51.95;;;;;;;;;;5074187;28;20052;-63
2021/12/13 10:46:11;;;;;;;110.95;57.85;;;;;;;;;;5056088;28;20060;-63
2021/12/13 10:48:44;;;;;;;75.22;43.65;;;;;;;;;;5056034;28;20032;-63
2021/12/13 10:51:16;;;;;;;65.47;36.50;;;;;;;;;;5073492;28;20053;-63
2021/12/13 10:53:45;;;;;;;62.10;37.67;;;;;;;;;;5073852;28;20039;-64
2021/12/13 10:56:16;;;;;;;90.30;47.15;;;;;;;;;;5073909;28;20100;-64
2021/12/13 10:58:43;;;;;;;;;;;;;;;;;;5073143;28;20120;-64
2021/12/13 11:01:11;;;;;;;98.03;50.20;;;;;;;;;;5073442;28;19951;-64
2021/12/13 11:03:38;;;;;;;69.50;38.63;;;;;;;;;;5073682;28;20095;-64
2021/12/13 11:06:05;;;;;;;64.30;38.22;;;;;;;;;;5072687;28;20060;-64
2021/12/13 11:08:32;;;;;;;60.10;34.83;;;;;;;;;;5073449;28;20021;-64
2021/12/13 11:11:01;;;;;;;59.50;34.97;;;;;;;;;;5073433;28;20017;-62
2021/12/13 11:13:31;;;;;;;62.47;35.78;;;;;;;;;;5073496;28;20119;-62
2021/12/13 11:15:59;;;;;;;64.45;38.58;;;;;;;;;;5073763;28;20036;-62
2021/12/13 11:18:29;;;;;;;72.53;41.25;;;;;;;;;;5073643;28;20078;-61
2021/12/13 11:20:57;;;;;;;86.82;49.03;;;;;;;;;;5055324;28;20029;-62
2021/12/13 11:23:24;;;;;;;81.75;43.53;;;;;;;;;;5073127;28;20045;-64
2021/12/13 11:25:52;;;;;;;66.20;38.72;;;;;;;;;;5073208;28;20112;-62
2021/12/13 11:28:18;;;;;;;68.38;39.22;;;;;;;;;;5073173;28;20032;-62
2021/12/13 11:30:46;;;;;;;69.45;40.60;;;;;;;;;;5073201;28;20060;-63
2021/12/13 11:33:22;;;;;;;73.22;42.10;;;;;;;;;;5055074;28;20024;-62
2021/12/13 11:36:11;;;;;;;84.65;47.85;;;;;;;;;;5055330;28;20025;-62
2021/12/13 11:39:04;;;;;;;77.25;40.53;;;;;;;;;;5073185;28;20114;-62
2021/12/13 11:41:49;;;;;;;74.25;41.00;;;;;;;;;;5073226;28;20029;-62
2021/12/13 11:44:27;;;;;;;76.43;44.10;;;;;;;;;;5073029;28;20021;-62
2021/12/13 11:47:12;;;;;;;70.75;39.17;;;;;;;;;;5072782;28;20063;-62
2021/12/13 11:49:49;;;;;;;73.45;40.75;;;;;;;;;;5072776;28;20095;-62
2021/12/13 11:52:28;;;;;;;71.72;41.50;;;;;;;;;;5072947;28;20020;-62
2021/12/13 11:55:20;;;;;;;77.20;43.92;;;;;;;;;;5054908;28;20119;-62
2021/12/13 11:57:46;;;;;;;84.70;45.00;;;;;;;;;;5073018;28;20024;-62
2021/12/13 12:00:19;;;;;;;83.05;43.83;;;;;;;;;;5072764;28;20187;-62
2021/12/13 12:03:08;;;;;;;74.03;43.72;;;;;;;;;;5072925;28;20056;-62
2021/12/13 12:05:53;;;;;;;98.45;51.03;;;;;;;;;;5071457;28;20066;-63
2021/12/13 12:08:37;;;;;;;88.90;48.30;;;;;;;;;;5058224;28;20040;-62
2021/12/13 12:11:13;;;;;;;67.97;39.80;;;;;;;;;;5072462;28;20082;-63
2021/12/13 12:14:08;;;;;;;64.13;35.00;;;;;;;;;;5073152;28;20488;-63
2021/12/13 12:16:37;;;;;;;63.17;35.15;;;;;;;;;;5072717;28;20021;-62
2021/12/13 12:19:04;;;;;;;59.15;34.88;;;;;;;;;;5075894;28;20071;-62
2021/12/13 12:21:45;;;;;;;58.58;33.50;;;;;;;;;;5075586;28;20029;-62
2021/12/13 12:24:14;;;;;;;70.80;37.92;;;;;;;;;;5076853;28;20024;-62
2021/12/13 12:26:42;;;;;;;68.63;37.05;;;;;;;;;;5058781;28;20373;-62
2021/12/13 12:29:11;;;;;;;62.85;35.08;;;;;;;;;;5058559;28;20025;-62
2021/12/13 12:31:39;;;;;;;66.07;38.53;;;;;;;;;;5058638;28;20025;-63
2021/12/13 12:34:06;;;;;;;63.20;36.05;;;;;;;;;;5076551;28;20016;-62
2021/12/13 12:36:38;;;;;;;68.88;39.97;;;;;;;;;;5076346;28;20025;-62
2021/12/13 12:39:05;;;;;;;74.65;40.47;;;;;;;;;;5076474;28;20063;-62
2021/12/13 12:41:37;;;;;;;74.97;42.42;;;;;;;;;;5076481;28;20071;-62
2021/12/13 12:44:04;;;;;;;67.38;38.97;;;;;;;;;;5076586;28;20541;-62
2021/12/13 12:46:39;;;;;;;71.03;38.97;;;;;;;;;;5076381;28;20099;-62
2021/12/13 12:49:11;;;;;;;71.78;39.22;;;;;;;;;;5076079;28;20489;-62
2021/12/13 12:51:38;;;;;;;74.05;39.90;;;;;;;;;;5075970;28;20454;-62
2021/12/13 12:54:05;;;;;;;68.40;36.35;;;;;;;;;;5076154;28;20025;-62
2021/12/13 12:56:49;;;;;;;60.33;34.97;;;;;;;;;;5057950;28;20036;-62
2021/12/13 12:59:17;;;;;;;62.97;34.78;;;;;;;;;;5074665;28;20045;-62
2021/12/13 13:01:45;;;;;;;71.60;37.97;;;;;;;;;;5073179;28;20028;-62
2021/12/13 13:04:17;;;;;;;67.70;36.63;;;;;;;;;;5074640;28;20067;-62
2021/12/13 13:06:43;;;;;;;;;;;;;;;;;;5075456;28;20021;-62
2021/12/13 13:09:10;;;;;;;72.63;38.05;;;;;;;;;;5074841;28;19958;-62
2021/12/13 13:11:36;;;;;;;75.20;39.30;;;;;;;;;;5075521;28;20029;-62
2021/12/13 13:14:11;;;;;;;72.07;37.35;;;;;;;;;;5075748;28;20028;-62
2021/12/13 13:16:45;;;;;;;71.82;38.92;;;;;;;;;;5075882;28;20020;-62
2021/12/13 13:19:23;;;;;;;70.03;39.40;;;;;;;;;;5057748;28;20072;-62
2021/12/13 13:21:50;;;;;;;75.90;40.83;;;;;;;;;;5057715;28;20491;-62
2021/12/13 13:24:16;;;;;;;70.75;39.80;;;;;;;;;;5075644;28;20089;-62
2021/12/13 13:26:44;;;;;;;80.80;44.97;;;;;;;;;;5075612;28;20037;-62
2021/12/13 13:29:14;;;;;;;94.45;50.53;;;;;;;;;;5074393;28;20033;-62
2021/12/13 13:31:48;;;;;;;85.75;46.70;;;;;;;;;;5057577;28;20028;-62
2021/12/13 13:34:18;;;;;;;67.03;39.10;;;;;;;;;;5075562;28;20051;-62
2021/12/13 13:36:47;;;;;;;72.70;38.90;;;;;;;;;;5075519;28;20029;-62
2021/12/13 13:39:15;;;;;;;68.72;39.25;;;;;;;;;;5075042;28;20397;-62
2021/12/13 13:41:45;;;;;;;70.82;40.10;;;;;;;;;;5075345;28;20025;-62
2021/12/13 13:44:12;;;;;;;77.88;44.60;;;;;;;;;;5075258;28;20025;-62
2021/12/13 13:46:39;;;;;;;102.88;55.53;;;;;;;;;;5057364;28;20032;-62
2021/12/13 13:49:06;;;;;;;111.47;57.03;;;;;;;;;;5074755;28;20064;-62
2021/12/13 13:51:33;;;;;;;88.85;48.00;;;;;;;;;;5074669;28;20123;-62
2021/12/13 13:53:59;;;;;;;91.82;47.90;;;;;;;;;;5075088;28;20055;-62
2021/12/13 13:56:26;;;;;;;102.25;54.00;;;;;;;;;;5074818;28;20056;-62
2021/12/13 13:58:57;;;;;;;99.10;55.40;;;;;;;;;;5074983;28;20078;-62
2021/12/13 14:01:50;;;;;;;114.30;58.80;;;;;;;;;;5074983;28;20450;-62
2021/12/13 14:04:26;;;;;;;179.50;84.32;;;;;;;;;;4957360;28;20609;-62
2021/12/13 14:06:55;;;;;;;121.63;59.50;;;;;;;;;;4973636;28;20022;-62
2021/12/13 14:09:26;;;;;;;125.90;59.58;;;;;;;;;;4957418;28;20138;-62
2021/12/13 14:12:03;;;;;;;140.32;61.88;;;;;;;;;;4973666;28;20114;-62
2021/12/13 14:14:50;;;;;;;104.65;52.47;;;;;;;;;;4973539;28;20035;-62
2021/12/13 14:17:30;;;;;;;108.13;56.30;;;;;;;;;;4957423;28;20035;-62
2021/12/13 14:19:56;;;;;;;75.07;41.83;;;;;;;;;;4973465;28;20486;-62
2021/12/13 14:22:29;;;;;;;66.07;34.28;;;;;;;;;;4973288;28;20105;-62
2021/12/13 14:24:55;;;;;;;58.53;33.72;;;;;;;;;;4957228;28;20037;-62
2021/12/13 14:27:24;;;;;;;62.85;35.35;;;;;;;;;;4973263;28;20039;-62
2021/12/13 14:30:07;;;;;;;71.55;39.92;;;;;;;;;;4973303;28;20121;-62
2021/12/13 14:32:33;;;;;;;83.57;43.83;;;;;;;;;;4956946;28;20050;-62
2021/12/13 14:35:11;;;;;;;77.25;39.85;;;;;;;;;;4973446;28;20130;-62
2021/12/13 14:37:37;;;;;;;98.30;46.50;;;;;;;;;;4973206;28;20544;-62
2021/12/13 14:40:04;;;;;;;100.45;51.60;;;;;;;;;;4982299;28;20045;-62
2021/12/13 14:42:31;;;;;;;101.85;50.50;;;;;;;;;;5074395;28;20055;-62
2021/12/13 14:44:59;;;;;;;98.60;52.65;;;;;;;;;;5074326;28;20025;-62
2021/12/13 14:47:33;;;;;;;93.05;50.58;;;;;;;;;;5074114;28;20016;-62
2021/12/13 14:50:00;;;;;;;97.78;55.58;;;;;;;;;;5073762;28;20052;-62
2021/12/13 14:52:29;;;;;;;111.07;59.58;;;;;;;;;;5056042;28;20358;-62